sensor_id;sensor_type;location;lat;lon;timestamp;P1;durP1;ratioP1;P2;durP2;ratioP2
33357;SDS011;19717;42.614;23.418;2022-09-27T00:00:08;12.73;;;10.73;;
33357;SDS011;19717;42.614;23.418;2022-09-27T00:02:35;13.65;;;10.05;;
33357;SDS011;19717;42.614;23.418;2022-09-27T00:05:01;19.15;;;12.55;;
33357;SDS011;19717;42.614;23.418;2022-09-27T00:07:27;17.73;;;13.02;;
33357;SDS011;19717;42.614;23.418;2022-09-27T00:09:53;15.50;;;10.57;;
33357;SDS011;19717;42.614;23.418;2022-09-27T00:12:19;12.52;;;7.20;;
33357;SDS011;19717;42.614;23.418;2022-09-27T00:14:45;17.02;;;9.05;;
33357;SDS011;19717;42.614;23.418;2022-09-27T00:17:11;16.00;;;10.77;;
33357;SDS011;19717;42.614;23.418;2022-09-27T00:19:37;15.73;;;10.68;;
33357;SDS011;19717;42.614;23.418;2022-09-27T00:22:04;11.30;;;7.38;;
33357;SDS011;19717;42.614;23.418;2022-09-27T00:24:30;8.00;;;5.10;;
33357;SDS011;19717;42.614;23.418;2022-09-27T00:26:56;6.43;;;4.28;;
33357;SDS011;19717;42.614;23.418;2022-09-27T00:29:22;8.85;;;5.72;;
33357;SDS011;19717;42.614;23.418;2022-09-27T00:31:48;11.80;;;7.43;;
33357;SDS011;19717;42.614;23.418;2022-09-27T00:34:18;11.27;;;8.02;;
33357;SDS011;19717;42.614;23.418;2022-09-27T00:36:45;11.23;;;7.50;;
33357;SDS011;19717;42.614;23.418;2022-09-27T00:39:11;14.00;;;8.45;;
33357;SDS011;19717;42.614;23.418;2022-09-27T00:41:37;10.05;;;8.00;;
33357;SDS011;19717;42.614;23.418;2022-09-27T00:44:57;11.40;;;7.93;;
33357;SDS011;19717;42.614;23.418;2022-09-27T00:47:10;10.30;;;7.82;;
33357;SDS011;19717;42.614;23.418;2022-09-27T00:52:14;12.85;;;9.25;;
33357;SDS011;19717;42.614;23.418;2022-09-27T00:54:43;15.30;;;9.43;;
33357;SDS011;19717;42.614;23.418;2022-09-27T00:57:12;72.85;;;68.60;;
33357;SDS011;19717;42.614;23.418;2022-09-27T00:59:45;16.88;;;10.40;;
33357;SDS011;19717;42.614;23.418;2022-09-27T01:02:12;15.57;;;10.25;;
33357;SDS011;19717;42.614;23.418;2022-09-27T01:04:38;12.80;;;10.30;;
33357;SDS011;19717;42.614;23.418;2022-09-27T01:07:04;12.88;;;10.68;;
33357;SDS011;19717;42.614;23.418;2022-09-27T01:09:31;17.17;;;10.95;;
33357;SDS011;19717;42.614;23.418;2022-09-27T01:35:27;22.40;;;12.80;;
33357;SDS011;19717;42.614;23.418;2022-09-27T01:41:13;22.30;;;13.50;;
33357;SDS011;19717;42.614;23.418;2022-09-27T01:43:29;22.92;;;14.35;;
33357;SDS011;19717;42.614;23.418;2022-09-27T01:46:03;22.10;;;12.70;;
33357;SDS011;19717;42.614;23.418;2022-09-27T01:48:38;17.60;;;12.05;;
33357;SDS011;19717;42.614;23.418;2022-09-27T01:51:11;17.52;;;13.30;;
33357;SDS011;19717;42.614;23.418;2022-09-27T01:53:43;20.30;;;12.82;;
33357;SDS011;19717;42.614;23.418;2022-09-27T01:56:11;19.67;;;14.40;;
33357;SDS011;19717;42.614;23.418;2022-09-27T01:58:45;20.33;;;13.27;;
33357;SDS011;19717;42.614;23.418;2022-09-27T02:01:14;25.52;;;14.48;;
33357;SDS011;19717;42.614;23.418;2022-09-27T02:03:42;20.60;;;13.50;;
33357;SDS011;19717;42.614;23.418;2022-09-27T02:06:14;19.13;;;12.47;;
33357;SDS011;19717;42.614;23.418;2022-09-27T02:08:42;20.83;;;13.68;;
33357;SDS011;19717;42.614;23.418;2022-09-27T02:11:13;17.83;;;12.45;;
33357;SDS011;19717;42.614;23.418;2022-09-27T02:21:24;21.83;;;14.35;;
33357;SDS011;19717;42.614;23.418;2022-09-27T02:23:56;19.15;;;13.10;;
33357;SDS011;19717;42.614;23.418;2022-09-27T02:26:29;18.20;;;13.25;;
33357;SDS011;19717;42.614;23.418;2022-09-27T02:28:59;18.17;;;13.40;;
33357;SDS011;19717;42.614;23.418;2022-09-27T02:31:26;19.67;;;13.63;;
33357;SDS011;19717;42.614;23.418;2022-09-27T02:34:02;21.67;;;14.30;;
33357;SDS011;19717;42.614;23.418;2022-09-27T02:36:29;25.55;;;16.67;;
33357;SDS011;19717;42.614;23.418;2022-09-27T02:38:55;23.58;;;15.38;;
33357;SDS011;19717;42.614;23.418;2022-09-27T02:41:22;22.98;;;15.65;;
33357;SDS011;19717;42.614;23.418;2022-09-27T02:43:49;19.55;;;13.32;;
33357;SDS011;19717;42.614;23.418;2022-09-27T03:00:02;14.00;;;10.18;;
33357;SDS011;19717;42.614;23.418;2022-09-27T03:07:14;16.15;;;11.73;;
33357;SDS011;19717;42.614;23.418;2022-09-27T03:09:44;14.45;;;10.85;;
33357;SDS011;19717;42.614;23.418;2022-09-27T03:12:12;17.38;;;11.85;;
33357;SDS011;19717;42.614;23.418;2022-09-27T03:14:38;16.80;;;11.85;;
33357;SDS011;19717;42.614;23.418;2022-09-27T03:17:04;18.50;;;12.98;;
33357;SDS011;19717;42.614;23.418;2022-09-27T03:19:30;17.67;;;12.35;;
33357;SDS011;19717;42.614;23.418;2022-09-27T03:21:56;21.00;;;13.68;;
33357;SDS011;19717;42.614;23.418;2022-09-27T03:24:22;18.95;;;14.43;;
33357;SDS011;19717;42.614;23.418;2022-09-27T03:26:48;20.80;;;14.32;;
33357;SDS011;19717;42.614;23.418;2022-09-27T03:29:14;18.25;;;14.43;;
33357;SDS011;19717;42.614;23.418;2022-09-27T03:31:41;22.60;;;15.20;;
33357;SDS011;19717;42.614;23.418;2022-09-27T03:34:07;20.30;;;14.98;;
33357;SDS011;19717;42.614;23.418;2022-09-27T03:36:33;21.23;;;15.70;;
33357;SDS011;19717;42.614;23.418;2022-09-27T03:38:59;20.95;;;14.98;;
33357;SDS011;19717;42.614;23.418;2022-09-27T03:41:25;25.02;;;15.82;;
33357;SDS011;19717;42.614;23.418;2022-09-27T03:43:51;21.20;;;14.85;;
33357;SDS011;19717;42.614;23.418;2022-09-27T03:46:18;25.17;;;16.30;;
33357;SDS011;19717;42.614;23.418;2022-09-27T03:48:44;22.52;;;16.08;;
33357;SDS011;19717;42.614;23.418;2022-09-27T03:51:10;25.73;;;16.02;;
33357;SDS011;19717;42.614;23.418;2022-09-27T03:53:37;22.40;;;15.63;;
33357;SDS011;19717;42.614;23.418;2022-09-27T03:56:03;24.15;;;16.33;;
33357;SDS011;19717;42.614;23.418;2022-09-27T03:58:29;23.77;;;16.58;;
33357;SDS011;19717;42.614;23.418;2022-09-27T04:00:55;20.50;;;15.88;;
33357;SDS011;19717;42.614;23.418;2022-09-27T04:03:21;23.33;;;15.90;;
33357;SDS011;19717;42.614;23.418;2022-09-27T04:05:47;22.30;;;16.13;;
33357;SDS011;19717;42.614;23.418;2022-09-27T04:08:13;24.40;;;17.02;;
33357;SDS011;19717;42.614;23.418;2022-09-27T04:10:40;23.95;;;16.95;;
33357;SDS011;19717;42.614;23.418;2022-09-27T04:13:06;28.13;;;17.17;;
33357;SDS011;19717;42.614;23.418;2022-09-27T04:15:32;23.92;;;17.42;;
33357;SDS011;19717;42.614;23.418;2022-09-27T04:17:58;23.05;;;17.25;;
33357;SDS011;19717;42.614;23.418;2022-09-27T04:20:24;22.80;;;16.75;;
33357;SDS011;19717;42.614;23.418;2022-09-27T04:22:50;24.83;;;18.05;;
33357;SDS011;19717;42.614;23.418;2022-09-27T04:25:16;28.83;;;18.73;;
33357;SDS011;19717;42.614;23.418;2022-09-27T04:27:43;28.80;;;18.35;;
33357;SDS011;19717;42.614;23.418;2022-09-27T04:30:09;24.17;;;17.65;;
33357;SDS011;19717;42.614;23.418;2022-09-27T04:32:42;26.20;;;16.98;;
33357;SDS011;19717;42.614;23.418;2022-09-27T04:35:09;26.25;;;17.77;;
33357;SDS011;19717;42.614;23.418;2022-09-27T04:37:55;27.23;;;18.70;;
33357;SDS011;19717;42.614;23.418;2022-09-27T04:40:21;24.20;;;17.63;;
33357;SDS011;19717;42.614;23.418;2022-09-27T04:42:48;27.58;;;19.67;;
33357;SDS011;19717;42.614;23.418;2022-09-27T04:45:14;32.28;;;21.30;;
33357;SDS011;19717;42.614;23.418;2022-09-27T04:47:42;28.55;;;19.83;;
33357;SDS011;19717;42.614;23.418;2022-09-27T04:50:08;28.40;;;19.40;;
33357;SDS011;19717;42.614;23.418;2022-09-27T04:52:34;28.92;;;20.52;;
33357;SDS011;19717;42.614;23.418;2022-09-27T04:55:01;33.75;;;21.90;;
33357;SDS011;19717;42.614;23.418;2022-09-27T04:57:27;32.70;;;22.08;;
33357;SDS011;19717;42.614;23.418;2022-09-27T04:59:53;37.83;;;22.67;;
33357;SDS011;19717;42.614;23.418;2022-09-27T05:02:19;33.53;;;21.73;;
33357;SDS011;19717;42.614;23.418;2022-09-27T05:04:45;32.38;;;22.70;;
33357;SDS011;19717;42.614;23.418;2022-09-27T05:07:11;34.63;;;24.20;;
33357;SDS011;19717;42.614;23.418;2022-09-27T05:09:37;34.50;;;22.15;;
33357;SDS011;19717;42.614;23.418;2022-09-27T05:12:03;48.55;;;31.80;;
33357;SDS011;19717;42.614;23.418;2022-09-27T05:14:31;40.15;;;26.67;;
33357;SDS011;19717;42.614;23.418;2022-09-27T05:16:57;37.72;;;24.45;;
33357;SDS011;19717;42.614;23.418;2022-09-27T05:19:23;33.20;;;22.83;;
33357;SDS011;19717;42.614;23.418;2022-09-27T05:21:49;35.95;;;22.95;;
33357;SDS011;19717;42.614;23.418;2022-09-27T05:24:15;38.92;;;24.13;;
33357;SDS011;19717;42.614;23.418;2022-09-27T05:26:42;39.13;;;26.17;;
33357;SDS011;19717;42.614;23.418;2022-09-27T05:29:09;80.93;;;44.47;;
33357;SDS011;19717;42.614;23.418;2022-09-27T05:31:35;54.72;;;30.67;;
33357;SDS011;19717;42.614;23.418;2022-09-27T05:34:01;51.75;;;32.45;;
33357;SDS011;19717;42.614;23.418;2022-09-27T05:36:27;45.53;;;29.60;;
33357;SDS011;19717;42.614;23.418;2022-09-27T05:38:54;44.88;;;28.40;;
33357;SDS011;19717;42.614;23.418;2022-09-27T05:41:20;41.17;;;25.23;;
33357;SDS011;19717;42.614;23.418;2022-09-27T05:43:46;39.83;;;24.58;;
33357;SDS011;19717;42.614;23.418;2022-09-27T05:46:13;40.53;;;26.17;;
33357;SDS011;19717;42.614;23.418;2022-09-27T05:48:39;41.60;;;26.75;;
33357;SDS011;19717;42.614;23.418;2022-09-27T05:51:05;44.88;;;29.50;;
33357;SDS011;19717;42.614;23.418;2022-09-27T05:53:31;68.80;;;46.90;;
33357;SDS011;19717;42.614;23.418;2022-09-27T05:56:01;50.67;;;34.67;;
33357;SDS011;19717;42.614;23.418;2022-09-27T05:58:28;43.97;;;28.15;;
33357;SDS011;19717;42.614;23.418;2022-09-27T06:00:54;47.03;;;31.63;;
33357;SDS011;19717;42.614;23.418;2022-09-27T06:03:20;88.25;;;66.72;;
33357;SDS011;19717;42.614;23.418;2022-09-27T06:05:46;58.67;;;39.40;;
33357;SDS011;19717;42.614;23.418;2022-09-27T06:08:13;91.43;;;52.28;;
33357;SDS011;19717;42.614;23.418;2022-09-27T06:10:39;58.30;;;36.03;;
33357;SDS011;19717;42.614;23.418;2022-09-27T06:13:07;44.63;;;28.55;;
33357;SDS011;19717;42.614;23.418;2022-09-27T06:15:34;50.92;;;30.20;;
33357;SDS011;19717;42.614;23.418;2022-09-27T06:18:02;45.50;;;29.38;;
33357;SDS011;19717;42.614;23.418;2022-09-27T06:20:29;54.83;;;34.42;;
33357;SDS011;19717;42.614;23.418;2022-09-27T06:23:02;54.50;;;36.10;;
33357;SDS011;19717;42.614;23.418;2022-09-27T06:25:28;48.47;;;31.60;;
33357;SDS011;19717;42.614;23.418;2022-09-27T06:27:54;67.22;;;43.72;;
33357;SDS011;19717;42.614;23.418;2022-09-27T06:30:20;62.33;;;37.70;;
33357;SDS011;19717;42.614;23.418;2022-09-27T06:32:46;67.20;;;43.92;;
33357;SDS011;19717;42.614;23.418;2022-09-27T06:35:12;59.25;;;40.17;;
33357;SDS011;19717;42.614;23.418;2022-09-27T06:37:38;59.97;;;45.50;;
33357;SDS011;19717;42.614;23.418;2022-09-27T06:40:05;47.80;;;35.80;;
33357;SDS011;19717;42.614;23.418;2022-09-27T06:42:33;52.85;;;33.80;;
33357;SDS011;19717;42.614;23.418;2022-09-27T06:44:59;81.60;;;36.20;;
33357;SDS011;19717;42.614;23.418;2022-09-27T06:47:25;67.47;;;31.05;;
33357;SDS011;19717;42.614;23.418;2022-09-27T06:49:53;48.08;;;26.65;;
33357;SDS011;19717;42.614;23.418;2022-09-27T06:52:19;45.53;;;27.00;;
33357;SDS011;19717;42.614;23.418;2022-09-27T06:54:45;56.90;;;31.50;;
33357;SDS011;19717;42.614;23.418;2022-09-27T06:57:12;59.20;;;30.40;;
33357;SDS011;19717;42.614;23.418;2022-09-27T06:59:58;60.35;;;34.95;;
33357;SDS011;19717;42.614;23.418;2022-09-27T07:02:42;47.17;;;28.58;;
33357;SDS011;19717;42.614;23.418;2022-09-27T07:05:10;50.25;;;28.38;;
33357;SDS011;19717;42.614;23.418;2022-09-27T07:07:37;44.20;;;28.10;;
33357;SDS011;19717;42.614;23.418;2022-09-27T07:10:03;40.95;;;25.63;;
33357;SDS011;19717;42.614;23.418;2022-09-27T07:12:30;40.85;;;24.88;;
33357;SDS011;19717;42.614;23.418;2022-09-27T07:14:56;42.80;;;26.85;;
33357;SDS011;19717;42.614;23.418;2022-09-27T07:17:22;43.60;;;28.65;;
33357;SDS011;19717;42.614;23.418;2022-09-27T07:19:48;48.63;;;28.70;;
33357;SDS011;19717;42.614;23.418;2022-09-27T07:22:14;46.45;;;29.27;;
33357;SDS011;19717;42.614;23.418;2022-09-27T07:24:40;54.30;;;32.78;;
33357;SDS011;19717;42.614;23.418;2022-09-27T07:27:06;46.72;;;27.70;;
33357;SDS011;19717;42.614;23.418;2022-09-27T07:29:32;41.90;;;27.23;;
33357;SDS011;19717;42.614;23.418;2022-09-27T07:31:58;44.10;;;27.88;;
33357;SDS011;19717;42.614;23.418;2022-09-27T07:34:25;42.28;;;27.48;;
33357;SDS011;19717;42.614;23.418;2022-09-27T07:36:51;41.45;;;26.65;;
33357;SDS011;19717;42.614;23.418;2022-09-27T07:39:19;44.05;;;27.52;;
33357;SDS011;19717;42.614;23.418;2022-09-27T07:41:46;47.35;;;26.98;;
33357;SDS011;19717;42.614;23.418;2022-09-27T07:44:12;42.75;;;27.13;;
33357;SDS011;19717;42.614;23.418;2022-09-27T07:46:40;42.72;;;26.13;;
33357;SDS011;19717;42.614;23.418;2022-09-27T07:49:06;48.03;;;29.75;;
33357;SDS011;19717;42.614;23.418;2022-09-27T07:51:32;49.70;;;29.95;;
33357;SDS011;19717;42.614;23.418;2022-09-27T07:53:59;49.92;;;30.27;;
33357;SDS011;19717;42.614;23.418;2022-09-27T07:56:25;46.80;;;29.35;;
33357;SDS011;19717;42.614;23.418;2022-09-27T07:58:51;51.65;;;29.95;;
33357;SDS011;19717;42.614;23.418;2022-09-27T08:01:17;51.63;;;31.88;;
33357;SDS011;19717;42.614;23.418;2022-09-27T08:03:44;48.00;;;28.35;;
33357;SDS011;19717;42.614;23.418;2022-09-27T08:06:10;43.42;;;26.05;;
33357;SDS011;19717;42.614;23.418;2022-09-27T08:08:36;42.22;;;26.42;;
33357;SDS011;19717;42.614;23.418;2022-09-27T08:11:09;43.15;;;28.13;;
33357;SDS011;19717;42.614;23.418;2022-09-27T08:13:37;44.63;;;25.85;;
33357;SDS011;19717;42.614;23.418;2022-09-27T08:16:04;35.78;;;23.88;;
33357;SDS011;19717;42.614;23.418;2022-09-27T08:18:30;40.13;;;25.20;;
33357;SDS011;19717;42.614;23.418;2022-09-27T08:20:56;41.17;;;26.33;;
33357;SDS011;19717;42.614;23.418;2022-09-27T08:23:22;44.72;;;27.23;;
33357;SDS011;19717;42.614;23.418;2022-09-27T08:25:52;44.03;;;27.75;;
33357;SDS011;19717;42.614;23.418;2022-09-27T08:28:19;42.13;;;28.55;;
33357;SDS011;19717;42.614;23.418;2022-09-27T08:30:47;45.25;;;28.67;;
33357;SDS011;19717;42.614;23.418;2022-09-27T08:33:13;48.35;;;30.77;;
33357;SDS011;19717;42.614;23.418;2022-09-27T08:35:39;52.78;;;32.60;;
33357;SDS011;19717;42.614;23.418;2022-09-27T08:38:05;48.42;;;31.85;;
33357;SDS011;19717;42.614;23.418;2022-09-27T08:43:16;53.45;;;33.17;;
33357;SDS011;19717;42.614;23.418;2022-09-27T08:45:50;51.15;;;34.05;;
33357;SDS011;19717;42.614;23.418;2022-09-27T08:48:19;52.55;;;32.15;;
33357;SDS011;19717;42.614;23.418;2022-09-27T08:50:45;55.40;;;33.40;;
33357;SDS011;19717;42.614;23.418;2022-09-27T08:55:40;43.13;;;28.85;;
33357;SDS011;19717;42.614;23.418;2022-09-27T09:00:58;34.83;;;23.92;;
33357;SDS011;19717;42.614;23.418;2022-09-27T09:03:26;32.53;;;23.13;;
33357;SDS011;19717;42.614;23.418;2022-09-27T09:08:24;34.85;;;24.10;;
33357;SDS011;19717;42.614;23.418;2022-09-27T09:21:34;52.90;;;37.83;;
33357;SDS011;19717;42.614;23.418;2022-09-27T09:26:48;47.55;;;31.20;;
33357;SDS011;19717;42.614;23.418;2022-09-27T09:34:18;36.63;;;26.42;;
33357;SDS011;19717;42.614;23.418;2022-09-27T09:36:46;37.38;;;25.42;;
33357;SDS011;19717;42.614;23.418;2022-09-27T09:39:15;34.38;;;23.55;;
33357;SDS011;19717;42.614;23.418;2022-09-27T09:44:28;68.50;;;41.13;;
33357;SDS011;19717;42.614;23.418;2022-09-27T09:46:57;43.22;;;29.00;;
33357;SDS011;19717;42.614;23.418;2022-09-27T09:49:44;41.92;;;27.75;;
33357;SDS011;19717;42.614;23.418;2022-09-27T09:52:18;49.92;;;29.95;;
33357;SDS011;19717;42.614;23.418;2022-09-27T09:54:55;62.75;;;31.17;;
33357;SDS011;19717;42.614;23.418;2022-09-27T09:57:24;69.50;;;32.38;;
33357;SDS011;19717;42.614;23.418;2022-09-27T10:00:00;54.90;;;31.40;;
33357;SDS011;19717;42.614;23.418;2022-09-27T10:02:31;43.95;;;30.05;;
33357;SDS011;19717;42.614;23.418;2022-09-27T10:04:57;394.17;;;103.85;;
33357;SDS011;19717;42.614;23.418;2022-09-27T10:07:23;83.00;;;34.65;;
33357;SDS011;19717;42.614;23.418;2022-09-27T10:09:51;47.25;;;27.75;;
33357;SDS011;19717;42.614;23.418;2022-09-27T10:12:18;48.53;;;27.75;;
33357;SDS011;19717;42.614;23.418;2022-09-27T10:14:44;41.83;;;29.08;;
33357;SDS011;19717;42.614;23.418;2022-09-27T10:17:12;82.28;;;49.55;;
33357;SDS011;19717;42.614;23.418;2022-09-27T10:19:40;99.57;;;44.20;;
33357;SDS011;19717;42.614;23.418;2022-09-27T10:24:58;57.80;;;33.58;;
33357;SDS011;19717;42.614;23.418;2022-09-27T10:27:26;41.67;;;28.33;;
33357;SDS011;19717;42.614;23.418;2022-09-27T10:29:59;62.78;;;32.55;;
33357;SDS011;19717;42.614;23.418;2022-09-27T10:32:26;42.28;;;27.83;;
33357;SDS011;19717;42.614;23.418;2022-09-27T10:34:55;57.45;;;35.03;;
33357;SDS011;19717;42.614;23.418;2022-09-27T10:37:22;47.35;;;30.17;;
33357;SDS011;19717;42.614;23.418;2022-09-27T10:39:48;48.35;;;27.90;;
33357;SDS011;19717;42.614;23.418;2022-09-27T10:42:35;52.03;;;35.25;;
33357;SDS011;19717;42.614;23.418;2022-09-27T10:45:19;50.67;;;32.88;;
33357;SDS011;19717;42.614;23.418;2022-09-27T10:47:46;48.25;;;30.27;;
33357;SDS011;19717;42.614;23.418;2022-09-27T10:50:15;41.97;;;27.40;;
33357;SDS011;19717;42.614;23.418;2022-09-27T10:52:43;37.92;;;27.30;;
33357;SDS011;19717;42.614;23.418;2022-09-27T10:55:23;64.03;;;50.10;;
33357;SDS011;19717;42.614;23.418;2022-09-27T10:57:51;37.00;;;26.13;;
33357;SDS011;19717;42.614;23.418;2022-09-27T11:00:25;30.88;;;24.25;;
33357;SDS011;19717;42.614;23.418;2022-09-27T11:02:55;31.50;;;25.48;;
33357;SDS011;19717;42.614;23.418;2022-09-27T11:10:25;21.52;;;16.55;;
33357;SDS011;19717;42.614;23.418;2022-09-27T11:19:02;28.13;;;19.13;;
33357;SDS011;19717;42.614;23.418;2022-09-27T11:21:10;23.90;;;17.73;;
33357;SDS011;19717;42.614;23.418;2022-09-27T11:26:28;23.27;;;15.90;;
33357;SDS011;19717;42.614;23.418;2022-09-27T11:39:28;20.48;;;16.15;;
33357;SDS011;19717;42.614;23.418;2022-09-27T11:47:07;21.95;;;13.95;;
33357;SDS011;19717;42.614;23.418;2022-09-27T12:00:18;14.18;;;12.68;;
33357;SDS011;19717;42.614;23.418;2022-09-27T12:05:34;15.93;;;9.93;;
33357;SDS011;19717;42.614;23.418;2022-09-27T12:10:27;12.63;;;9.02;;
33357;SDS011;19717;42.614;23.418;2022-09-27T12:12:54;12.98;;;10.30;;
33357;SDS011;19717;42.614;23.418;2022-09-27T12:15:22;15.18;;;9.43;;
33357;SDS011;19717;42.614;23.418;2022-09-27T12:17:51;13.80;;;8.80;;
33357;SDS011;19717;42.614;23.418;2022-09-27T12:20:29;12.70;;;8.45;;
33357;SDS011;19717;42.614;23.418;2022-09-27T12:22:57;13.20;;;8.18;;
33357;SDS011;19717;42.614;23.418;2022-09-27T12:25:27;14.20;;;8.98;;
33357;SDS011;19717;42.614;23.418;2022-09-27T12:30:45;10.38;;;8.65;;
33357;SDS011;19717;42.614;23.418;2022-09-27T12:35:50;12.15;;;9.40;;
33357;SDS011;19717;42.614;23.418;2022-09-27T12:40:52;9.82;;;8.35;;
33357;SDS011;19717;42.614;23.418;2022-09-27T12:43:21;10.70;;;8.20;;
33357;SDS011;19717;42.614;23.418;2022-09-27T12:48:53;8.85;;;6.63;;
33357;SDS011;19717;42.614;23.418;2022-09-27T12:51:24;11.00;;;6.70;;
33357;SDS011;19717;42.614;23.418;2022-09-27T12:59:16;8.48;;;6.13;;
33357;SDS011;19717;42.614;23.418;2022-09-27T13:04:22;12.25;;;6.78;;
33357;SDS011;19717;42.614;23.418;2022-09-27T13:12:07;8.13;;;6.18;;
33357;SDS011;19717;42.614;23.418;2022-09-27T13:14:38;9.23;;;5.07;;
33357;SDS011;19717;42.614;23.418;2022-09-27T13:17:05;6.03;;;5.20;;
33357;SDS011;19717;42.614;23.418;2022-09-27T13:22:01;7.72;;;4.75;;
33357;SDS011;19717;42.614;23.418;2022-09-27T13:27:46;4.90;;;3.53;;
33357;SDS011;19717;42.614;23.418;2022-09-27T13:30:42;7.72;;;3.95;;
33357;SDS011;19717;42.614;23.418;2022-09-27T13:35:30;6.15;;;2.92;;
33357;SDS011;19717;42.614;23.418;2022-09-27T13:37:57;2.90;;;2.70;;
33357;SDS011;19717;42.614;23.418;2022-09-27T13:40:28;4.30;;;3.08;;
33357;SDS011;19717;42.614;23.418;2022-09-27T13:45:24;4.03;;;2.55;;
33357;SDS011;19717;42.614;23.418;2022-09-27T13:47:53;4.63;;;2.17;;
33357;SDS011;19717;42.614;23.418;2022-09-27T13:55:41;1.45;;;1.30;;
33357;SDS011;19717;42.614;23.418;2022-09-27T13:58:12;2.53;;;1.63;;
33357;SDS011;19717;42.614;23.418;2022-09-27T14:00:41;4.93;;;1.90;;
33357;SDS011;19717;42.614;23.418;2022-09-27T14:05:45;2.90;;;1.75;;
33357;SDS011;19717;42.614;23.418;2022-09-27T14:08:46;2.92;;;1.77;;
33357;SDS011;19717;42.614;23.418;2022-09-27T14:11:09;6.50;;;2.47;;
33357;SDS011;19717;42.614;23.418;2022-09-27T14:13:37;3.97;;;2.60;;
33357;SDS011;19717;42.614;23.418;2022-09-27T14:16:04;6.50;;;3.10;;
33357;SDS011;19717;42.614;23.418;2022-09-27T14:18:30;7.13;;;2.60;;
33357;SDS011;19717;42.614;23.418;2022-09-27T14:21:16;6.78;;;3.47;;
33357;SDS011;19717;42.614;23.418;2022-09-27T14:23:44;5.50;;;3.17;;
33357;SDS011;19717;42.614;23.418;2022-09-27T14:26:26;6.28;;;3.50;;
33357;SDS011;19717;42.614;23.418;2022-09-27T14:28:53;6.88;;;3.67;;
33357;SDS011;19717;42.614;23.418;2022-09-27T14:31:20;7.18;;;3.03;;
33357;SDS011;19717;42.614;23.418;2022-09-27T14:33:47;3.65;;;3.00;;
33357;SDS011;19717;42.614;23.418;2022-09-27T14:36:34;3.72;;;2.83;;
33357;SDS011;19717;42.614;23.418;2022-09-27T14:39:23;3.20;;;2.90;;
33357;SDS011;19717;42.614;23.418;2022-09-27T14:41:50;3.10;;;2.70;;
33357;SDS011;19717;42.614;23.418;2022-09-27T14:44:17;3.92;;;3.10;;
33357;SDS011;19717;42.614;23.418;2022-09-27T14:46:44;4.38;;;2.80;;
33357;SDS011;19717;42.614;23.418;2022-09-27T14:49:19;5.43;;;3.17;;
33357;SDS011;19717;42.614;23.418;2022-09-27T14:51:51;6.55;;;3.10;;
33357;SDS011;19717;42.614;23.418;2022-09-27T14:54:19;4.18;;;3.40;;
33357;SDS011;19717;42.614;23.418;2022-09-27T14:56:45;8.98;;;3.33;;
33357;SDS011;19717;42.614;23.418;2022-09-27T14:59:16;12.43;;;3.75;;
33357;SDS011;19717;42.614;23.418;2022-09-27T15:01:50;3.78;;;2.92;;
33357;SDS011;19717;42.614;23.418;2022-09-27T15:04:16;3.65;;;2.90;;
33357;SDS011;19717;42.614;23.418;2022-09-27T15:06:43;4.28;;;2.65;;
33357;SDS011;19717;42.614;23.418;2022-09-27T15:09:10;5.43;;;2.72;;
33357;SDS011;19717;42.614;23.418;2022-09-27T15:11:41;3.75;;;2.83;;
33357;SDS011;19717;42.614;23.418;2022-09-27T15:14:15;4.45;;;3.15;;
33357;SDS011;19717;42.614;23.418;2022-09-27T15:16:44;4.20;;;2.70;;
33357;SDS011;19717;42.614;23.418;2022-09-27T15:19:15;3.10;;;2.40;;
33357;SDS011;19717;42.614;23.418;2022-09-27T15:21:43;3.67;;;2.45;;
33357;SDS011;19717;42.614;23.418;2022-09-27T15:24:51;3.50;;;3.20;;
33357;SDS011;19717;42.614;23.418;2022-09-27T15:26:58;5.82;;;4.38;;
33357;SDS011;19717;42.614;23.418;2022-09-27T15:29:25;8.65;;;4.07;;
33357;SDS011;19717;42.614;23.418;2022-09-27T15:32:04;4.68;;;1.95;;
33357;SDS011;19717;42.614;23.418;2022-09-27T15:34:31;4.47;;;1.30;;
33357;SDS011;19717;42.614;23.418;2022-09-27T15:37:01;4.53;;;1.05;;
33357;SDS011;19717;42.614;23.418;2022-09-27T15:52:48;7.32;;;3.78;;
33357;SDS011;19717;42.614;23.418;2022-09-27T15:55:16;1.25;;;0.95;;
33357;SDS011;19717;42.614;23.418;2022-09-27T15:57:44;2.67;;;1.10;;
33357;SDS011;19717;42.614;23.418;2022-09-27T16:00:14;1.75;;;1.17;;
33357;SDS011;19717;42.614;23.418;2022-09-27T16:02:41;6.90;;;3.03;;
33357;SDS011;19717;42.614;23.418;2022-09-27T16:05:07;2.42;;;1.40;;
33357;SDS011;19717;42.614;23.418;2022-09-27T16:07:33;2.25;;;1.08;;
33357;SDS011;19717;42.614;23.418;2022-09-27T16:10:00;3.08;;;1.67;;
33357;SDS011;19717;42.614;23.418;2022-09-27T16:12:26;6.22;;;2.50;;
33357;SDS011;19717;42.614;23.418;2022-09-27T16:14:54;5.38;;;2.13;;
33357;SDS011;19717;42.614;23.418;2022-09-27T16:17:20;3.10;;;1.80;;
33357;SDS011;19717;42.614;23.418;2022-09-27T16:19:46;14.73;;;6.30;;
33357;SDS011;19717;42.614;23.418;2022-09-27T16:22:14;19.50;;;6.07;;
33357;SDS011;19717;42.614;23.418;2022-09-27T16:24:40;34.05;;;11.25;;
33357;SDS011;19717;42.614;23.418;2022-09-27T16:27:06;21.95;;;6.25;;
33357;SDS011;19717;42.614;23.418;2022-09-27T16:29:32;16.00;;;4.15;;
33357;SDS011;19717;42.614;23.418;2022-09-27T16:31:58;11.88;;;3.75;;
33357;SDS011;19717;42.614;23.418;2022-09-27T16:34:25;7.25;;;3.05;;
33357;SDS011;19717;42.614;23.418;2022-09-27T16:36:52;5.55;;;2.45;;
33357;SDS011;19717;42.614;23.418;2022-09-27T16:39:18;5.22;;;3.60;;
33357;SDS011;19717;42.614;23.418;2022-09-27T16:41:44;8.25;;;5.13;;
33357;SDS011;19717;42.614;23.418;2022-09-27T16:44:11;5.07;;;2.67;;
33357;SDS011;19717;42.614;23.418;2022-09-27T16:46:41;3.83;;;2.80;;
33357;SDS011;19717;42.614;23.418;2022-09-27T16:49:10;14.10;;;7.10;;
33357;SDS011;19717;42.614;23.418;2022-09-27T16:51:55;12.57;;;5.43;;
33357;SDS011;19717;42.614;23.418;2022-09-27T16:54:24;20.20;;;9.27;;
33357;SDS011;19717;42.614;23.418;2022-09-27T16:56:52;12.50;;;6.30;;
33357;SDS011;19717;42.614;23.418;2022-09-27T16:59:18;14.05;;;6.78;;
33357;SDS011;19717;42.614;23.418;2022-09-27T17:01:45;9.60;;;6.05;;
33357;SDS011;19717;42.614;23.418;2022-09-27T17:04:11;8.00;;;3.30;;
33357;SDS011;19717;42.614;23.418;2022-09-27T17:06:41;9.07;;;4.28;;
33357;SDS011;19717;42.614;23.418;2022-09-27T17:09:07;10.82;;;6.07;;
33357;SDS011;19717;42.614;23.418;2022-09-27T17:11:33;13.90;;;7.82;;
33357;SDS011;19717;42.614;23.418;2022-09-27T17:13:59;12.63;;;6.93;;
33357;SDS011;19717;42.614;23.418;2022-09-27T17:16:26;23.55;;;13.38;;
33357;SDS011;19717;42.614;23.418;2022-09-27T17:18:52;28.95;;;15.45;;
33357;SDS011;19717;42.614;23.418;2022-09-27T17:21:18;24.10;;;14.45;;
33357;SDS011;19717;42.614;23.418;2022-09-27T17:23:45;22.52;;;15.20;;
33357;SDS011;19717;42.614;23.418;2022-09-27T17:28:40;35.78;;;16.27;;
33357;SDS011;19717;42.614;23.418;2022-09-27T17:31:07;41.83;;;16.45;;
33357;SDS011;19717;42.614;23.418;2022-09-27T17:33:35;16.08;;;9.60;;
33357;SDS011;19717;42.614;23.418;2022-09-27T17:36:06;6.47;;;5.30;;